Flag Island, Minnesota
Current Conditions -  °F | °C
As of 6:14 PM on Saturday 27 Dec 2014 (Local Time) from KFGN Reporting Station
Overcast Overcast  
Wind Chill: -7°   Ceiling: 1700
Heat Index: 10°   Visibility: 10mi
Dew Point:   Wind: 17mph
Humidity: 79%   Direction: 310°NW
Pressure: 29.99"   Gusts: NA
Location:  49.32°N, 94.9°W
Report Text: KFGN 280014Z AUTO 31015KT 10SM OVC017 M12/M15 A2999 RMK AO2
Loading
Personal Weather Stations






























Interactive Weather Map New forecast layout! Learn more

10-Day Weather Forecast

Advertisements
Track Severe Weather on mobile